Date,TemperatureHighF,TemperatureAvgF,TemperatureLowF,DewpointHighF,DewpointAvgF,DewpointLowF,HumidityHigh,HumidityAvg,HumidityLow,PressureMaxIn,PressureMinIn,WindSpeedMaxMPH,WindSpeedAvgMPH,GustSpeedMaxMPH,PrecipitationSumIn
2012-1-1,60,51,44,39,35,30,75,56,36,30.59,30.15,32,13,32,0.00
2012-1-2,53,44,38,31,28,20,74,54,32,30.73,30.58,25,11,25,0.00
2012-1-3,57,44,30,34,30,26,92,62,39,30.58,30.23,32,14,32,0.00
2012-1-4,62,48,36,44,39,31,100,73,48,30.33,30.21,20,8,20,0.00
2012-1-5,67,51,37,44,40,37,100,71,40,30.32,30.08,15,7,15,0.00
2012-1-6,73,58,46,59,51,41,100,80,51,30.08,29.87,33,15,33,0.00
2012-1-7,60,52,45,56,49,42,100,89,68,30.05,29.91,20,8,20,0.00
2012-1-8,70,50,40,54,48,40,100,95,83,30.15,30.03,20,8,20,0.04
2012-1-9,51,47,44,51,47,44,100,100,100,30.15,30.00,36,16,36,2.32
2012-1-10,48,45,43,48,45,43,100,100,100,30.01,29.83,25,12,25,0.27
2012-1-11,64,49,38,51,44,37,100,85,62,29.97,29.66,40,12,41,0.00
2012-1-12,44,36,31,37,21,16,83,56,37,30.26,29.97,45,20,45,0.00
2012-1-13,55,40,28,36,28,18,87,64,44,30.30,30.20,23,9,23,0.00
2012-1-14,68,48,33,43,35,28,87,63,33,30.32,30.23,16,9,16,0.00
2012-1-15,66,53,39,58,42,34,91,68,44,30.31,30.12,36,20,36,0.00
2012-1-16,69,65,61,67,64,58,100,95,86,30.12,29.91,50,27,50,0.00
2012-1-17,68,51,35,68,42,25,100,73,51,30.36,29.93,34,18,34,0.00
2012-1-18,54,40,29,37,30,24,88,68,49,30.36,30.02,17,8,17,0.00
2012-1-19,72,55,42,50,44,35,96,71,41,30.02,29.86,25,11,25,0.00
2012-1-20,77,63,48,66,59,41,100,86,62,29.92,29.70,36,19,36,0.00
2012-1-21,54,45,37,47,40,33,96,81,60,30.10,29.87,28,12,28,0.00
2012-1-22,76,61,49,67,52,34,100,79,25,29.98,29.65,48,23,48,0.00
2012-1-23,63,51,43,42,38,34,85,63,39,30.17,29.99,26,8,28,0.00
2012-1-24,66,52,41,55,44,36,100,75,45,30.10,29.91,32,16,32,1.50
2012-1-25,53,49,47,53,49,47,100,100,100,30.00,29.82,46,18,46,2.17
2012-1-26,60,50,45,51,46,41,100,85,52,30.06,29.88,31,13,31,0.36
2012-1-27,68,53,38,51,45,37,100,76,47,30.17,29.89,43,16,43,0.00
2012-1-28,52,45,39,39,32,28,74,59,43,30.48,30.17,44,16,44,0.00
2012-1-29,61,47,35,40,34,26,89,62,40,30.46,30.28,22,8,22,0.00
2012-1-30,67,55,42,58,49,36,93,80,63,30.28,30.11,40,16,40,0.00
2012-1-31,73,63,58,64,61,58,100,93,72,30.15,30.00,34,17,34,0.00
2012-2-1,99,61,56,66,59,56,100,94,70,30.15,30.04,24,9,24,0.00
2012-2-2,70,60,50,65,59,50,100,96,83,30.15,30.02,25,13,25,0.00
2012-2-3,73,66,57,70,66,57,100,98,88,30.05,29.90,32,16,32,0.38
2012-2-4,58,50,44,57,45,37,100,83,66,30.30,30.05,30,19,30,0.01
2012-2-5,45,42,39,38,37,36,89,81,73,30.41,30.30,31,15,31,0.00
2012-2-6,56,45,35,44,39,35,100,83,62,30.37,30.19,14,6,14,0.00
2012-2-7,58,51,46,50,47,44,100,87,67,30.35,30.19,12,5,12,0.00
2012-2-8,47,43,40,46,40,37,100,92,84,30.50,30.35,21,9,21,0.00
2012-2-9,57,46,36,47,41,35,100,84,66,30.36,30.12,25,7,25,0.00
2012-2-10,57,48,34,48,44,28,100,88,65,30.38,30.07,36,13,36,0.13
2012-2-11,36,31,27,28,21,16,81,66,49,30.59,30.38,36,18,36,0.00
2012-2-12,44,35,26,34,22,18,100,62,41,30.61,30.24,30,11,30,0.00
2012-2-13,44,39,34,44,39,34,100,100,97,30.24,29.86,23,11,23,0.14
2012-2-14,62,50,44,57,49,44,100,98,83,30.01,29.88,24,11,24,0.00
2012-2-15,74,60,51,65,50,35,100,76,38,30.05,29.88,25,10,26,0.00
2012-2-16,56,50,44,49,46,37,100,89,50,30.27,30.05,25,11,25,0.00
2012-2-17,62,53,46,55,49,46,100,90,58,30.17,30.00,16,8,17,0.02
2012-2-18,51,48,46,51,48,46,100,100,95,30.07,29.86,29,15,29,1.33
2012-2-19,59,48,39,50,46,39,100,92,70,30.18,30.03,23,8,23,0.00
2012-2-20,63,53,45,59,48,31,100,87,36,30.12,29.92,37,19,37,0.00
2012-2-21,69,56,42,60,43,28,98,64,36,30.18,29.91,30,11,30,0.00
2012-2-22,78,66,58,62,52,41,100,66,29,29.92,29.59,36,16,36,0.00
2012-2-23,82,66,54,53,45,37,83,49,28,29.85,29.48,36,19,36,0.00
2012-2-24,60,51,44,37,29,25,53,42,30,30.34,29.85,33,16,33,0.00
2012-2-25,64,50,38,35,30,25,71,48,27,30.38,30.16,27,12,27,0.00
2012-2-26,66,53,39,52,43,31,90,72,57,30.17,30.01,37,18,37,0.00
2012-2-27,71,60,54,59,55,52,95,83,60,30.28,30.15,21,10,21,0.00
2012-2-28,75,66,56,69,64,54,100,93,78,30.16,29.87,46,19,46,0.00
2012-2-29,77,68,55,69,47,34,100,53,24,30.03,29.91,30,10,30,0.04
2012-3-1,79,65,49,70,57,37,100,77,43,29.93,29.63,36,16,36,0.00
2012-3-2,71,64,51,71,52,39,100,69,42,29.93,29.61,37,18,37,0.00
2012-3-3,62,52,42,39,35,31,81,56,33,30.14,29.93,26,11,26,0.00
2012-3-4,74,57,41,41,35,31,79,48,23,30.18,30.07,24,10,24,0.00
2012-3-5,79,62,46,51,43,39,80,53,29,30.31,30.18,32,13,32,0.00
2012-3-6,72,62,51,59,54,46,100,75,55,30.20,29.99,50,25,50,0.00
2012-3-7,70,67,63,68,64,59,100,90,81,30.00,29.90,40,23,41,0.00
2012-3-8,71,58,44,71,58,41,100,99,89,30.30,29.90,39,20,39,0.41
2012-3-9,53,47,41,41,36,32,90,68,49,30.47,30.30,36,18,36,0.00
2012-3-10,55,50,48,50,44,37,100,82,57,30.33,30.07,30,12,30,0.66
2012-3-11,66,56,50,60,55,50,100,97,78,30.08,29.92,20,10,20,0.16
2012-3-12,79,64,53,66,60,53,100,87,57,30.05,29.95,26,17,26,0.01
2012-3-13,77,69,63,70,67,63,100,93,75,30.13,30.02,27,15,27,0.01
2012-3-14,79,71,66,70,68,66,100,91,71,30.13,30.03,32,16,32,0.00
2012-3-15,82,72,66,71,68,66,100,90,68,30.14,30.05,34,16,34,0.00
2012-3-16,81,72,66,72,68,66,100,90,68,30.11,29.98,32,17,32,0.00
2012-3-17,81,72,66,70,67,64,100,85,65,30.05,29.93,36,20,36,0.01
2012-3-18,76,71,66,71,68,66,100,92,80,30.00,29.83,41,20,41,0.00
2012-3-19,81,71,58,70,67,58,100,88,64,29.87,29.62,59,28,59,2.25
2012-3-20,72,58,52,72,56,52,100,97,81,29.85,29.66,26,10,26,2.25
2012-3-21,66,59,51,57,50,43,100,74,47,29.84,29.75,36,16,36,0.00
2012-3-22,75,57,52,59,53,49,100,87,57,29.97,29.76,37,14,37,0.12
2012-3-23,77,61,48,55,52,48,100,75,42,30.04,29.93,14,6,14,0.00
2012-3-24,82,67,52,62,57,51,100,72,49,30.06,29.95,10,4,11,0.00
2012-3-25,85,70,57,64,60,56,100,71,42,30.09,29.92,10,5,10,0.00
2012-3-26,86,72,60,66,61,56,93,69,48,30.07,29.88,22,9,22,0.00
2012-3-27,82,70,60,66,63,60,100,80,53,30.06,29.97,31,13,32,0.00
2012-3-28,79,68,61,70,66,61,100,91,70,30.06,29.92,24,11,24,0.00
2012-3-29,80,69,61,71,66,61,100,94,72,29.95,29.75,23,10,23,0.00
2012-3-30,82,72,66,75,70,66,100,94,74,29.87,29.70,24,11,24,0.00
2012-3-31,83,72,65,76,70,58,100,95,76,29.87,26.33,23,9,23,0.00
2012-4-1,87,75,68,74,71,68,100,87,61,29.80,29.59,33,19,34,0.00
2012-4-2,83,72,67,74,70,66,100,93,69,29.73,29.55,30,15,30,0.00
2012-4-3,79,68,60,75,68,60,100,98,87,29.84,29.67,33,10,34,0.57
2012-4-4,76,66,59,66,61,56,100,86,60,29.91,29.69,22,8,22,0.00
2012-4-5,77,66,58,61,58,55,97,77,54,29.93,29.75,21,10,21,0.00
2012-4-6,79,67,56,65,61,56,100,82,58,30.04,29.87,16,9,16,0.00
2012-4-7,84,71,60,70,65,59,100,84,60,30.17,30.01,26,10,26,0.00
2012-4-8,72,66,61,68,65,61,100,99,87,30.25,30.11,27,8,27,0.24
2012-4-9,80,67,59,72,65,58,100,94,70,30.19,28.17,16,6,16,0.00
2012-4-10,87,73,63,70,67,63,100,84,55,30.11,29.95,15,6,15,0.00
2012-4-11,86,71,62,72,67,58,100,88,47,30.11,29.93,26,8,26,0.00
2012-4-12,68,63,59,65,62,59,100,97,90,30.05,30.01,25,14,25,0.00
2012-4-15,75,63,56,73,61,54,100,92,66,29.92,29.72,34,9,35,0.35
2012-4-16,72,62,53,58,55,52,100,79,55,30.16,29.89,22,10,22,0.00
2012-4-17,77,65,52,63,57,52,100,77,45,30.24,30.13,17,8,17,0.00
2012-4-18,80,66,53,64,58,53,100,77,50,30.17,29.99,22,9,22,0.00
2012-4-19,82,68,55,65,59,53,95,74,54,30.00,29.75,32,14,32,0.00
2012-4-20,68,63,58,65,60,52,100,91,75,30.01,29.73,32,13,33,0.06
2012-4-21,76,61,49,55,50,45,100,71,41,30.06,29.96,24,10,24,0.00
2012-4-22,82,68,55,62,53,45,95,63,37,30.15,30.00,36,11,36,0.00
2012-4-23,76,64,52,51,47,44,75,55,36,30.25,30.05,22,9,22,0.00
2012-4-24,85,69,53,65,57,49,93,68,45,30.06,29.83,28,13,28,0.00
2012-4-25,89,76,64,75,69,63,100,81,60,29.88,29.67,40,22,40,0.00
2012-4-26,89,78,69,76,72,67,98,83,63,29.85,26.79,30,17,30,0.00
2012-4-27,76,72,68,70,69,68,100,89,80,29.82,29.71,26,15,26,0.00
2012-5-4,86,80,74,76,70,62,83,72,49,29.98,29.69,47,16,47,0.00
2012-5-5,93,81,69,78,72,62,91,75,59,29.96,29.72,33,16,33,0.00
2012-5-6,90,80,73,76,74,67,100,84,50,29.90,26.27,30,14,30,0.00
2012-5-7,93,79,70,77,73,69,100,83,52,29.93,29.75,27,11,27,0.00
2012-5-8,74,69,65,72,67,59,100,95,85,30.01,25.95,25,11,25,1.19
2012-5-9,82,72,62,66,58,50,97,67,36,30.05,29.86,22,9,22,0.00
2012-5-10,84,73,62,64,58,53,89,62,38,29.97,29.83,23,9,23,0.00
2012-5-11,77,68,64,72,66,62,100,95,77,29.96,29.81,23,10,23,0.97
2012-5-12,70,66,63,67,65,63,100,97,86,30.14,29.96,20,8,20,0.00
2012-5-13,84,72,63,69,65,60,100,80,49,30.16,30.05,17,9,17,0.00
2012-5-14,84,74,63,68,64,62,100,73,50,30.11,29.98,20,8,20,0.00
2012-5-15,86,74,65,67,62,54,97,69,40,30.08,25.50,22,8,22,0.00
2012-5-16,90,75,61,68,63,59,100,71,40,30.07,29.95,13,5,13,0.00
2012-5-17,91,78,65,68,64,58,94,66,39,30.03,27.41,19,8,19,0.00
2012-5-18,90,78,65,70,65,61,99,67,44,29.95,29.83,33,14,33,0.00
2012-5-19,90,78,64,72,66,62,100,70,43,29.98,29.88,34,16,35,0.00
2012-5-20,91,79,67,71,66,60,97,68,39,30.15,29.97,23,8,23,0.00
2012-5-21,89,78,66,72,67,63,93,71,45,30.15,30.02,22,8,22,0.00
2012-5-22,92,78,65,70,64,58,80,64,45,30.05,29.81,16,8,16,0.00
2012-5-23,92,81,69,72,69,66,96,69,50,29.83,29.61,38,20,38,0.00
2012-5-24,93,82,73,77,73,70,94,76,56,29.74,29.61,48,27,48,0.00
2012-5-25,94,83,72,78,75,72,100,78,54,29.93,29.74,38,21,38,0.00
2012-5-26,92,82,74,76,73,67,100,77,52,30.03,29.91,29,17,29,0.00
2012-5-27,93,81,68,74,70,66,100,71,45,30.00,29.85,35,16,35,0.00
2012-5-28,94,81,69,77,72,67,100,76,54,30.01,29.78,41,13,41,0.38
2012-5-29,96,81,67,80,73,67,100,80,53,29.99,29.76,29,11,32,0.13
2012-5-30,93,77,63,75,70,63,100,80,43,29.99,29.71,44,14,44,0.11
2012-5-31,84,74,67,72,67,57,100,80,57,29.96,29.65,41,13,41,0.62
2012-6-1,86,73,62,65,59,53,80,63,46,30.02,26.98,18,8,19,0.00
2012-6-2,95,78,68,76,68,60,91,72,50,29.93,29.84,26,12,26,0.00
2012-6-3,96,89,81,79,75,71,83,63,49,29.91,29.81,29,16,29,0.00
2012-6-4,94,82,74,80,76,73,100,83,60,29.93,29.78,26,9,26,0.00
2012-6-5,98,84,74,77,75,65,100,75,47,29.85,26.33,30,7,30,0.00
2012-6-6,94,78,68,80,74,54,100,87,59,29.94,25.74,40,13,41,2.17
2012-6-7,121,70,68,80,70,50,100,100,99,30.92,23.81,24,3,25,0.38
2012-6-8,88,77,69,100,68,63,100,74,51,30.82,29.39,250,1,250,0.76
2012-6-9,92,80,69,77,73,68,100,80,56,29.89,29.72,0,0,0,0.00
2012-6-10,93,83,73,78,76,73,100,80,59,29.80,29.73,0,0,0,0.00
2012-6-11,97,86,77,82,78,76,100,80,59,29.93,29.76,0,0,0,0.00
2012-6-12,92,80,71,80,72,68,100,79,53,30.08,29.91,0,0,0,0.00
2012-6-13,90,77,69,76,73,69,100,87,60,30.08,29.87,0,0,0,0.00
2012-6-14,95,84,75,79,76,69,100,81,55,29.96,26.88,0,0,0,0.00
2012-6-15,93,82,75,80,76,74,100,85,60,30.00,29.89,0,0,0,0.00
2012-6-16,95,82,74,79,75,70,97,80,54,30.05,29.95,0,0,0,0.00
2012-6-17,93,81,71,78,74,71,100,83,56,30.03,29.83,0,0,0,0.00
2012-6-18,93,82,72,77,73,69,99,76,50,29.86,29.78,0,0,0,0.00
2012-6-19,78,76,74,76,74,73,100,96,85,29.88,29.84,0,0,0,0.00
2012-7-9,75,74,72,75,74,72,100,100,100,29.91,29.89,0,0,0,0.00
2012-7-10,92,79,72,79,75,64,100,89,62,29.92,26.39,0,0,0,0.00
2012-7-11,92,82,72,79,75,72,100,84,56,29.93,29.76,0,0,0,0.00
2012-7-12,93,81,71,78,75,71,100,85,57,29.92,29.85,0,0,0,0.00
2012-7-13,92,81,73,80,75,73,100,84,57,29.97,29.88,0,0,0,0.00
2012-7-14,94,82,72,79,75,66,100,82,55,29.99,26.96,0,0,0,0.00
2012-9-2,99,93,85,78,75,72,67,56,47,30.02,29.93,15,8,21,0.00
2012-9-3,100,87,76,80,75,71,99,71,45,30.04,29.91,14,7,18,0.00
2012-9-4,101,87,77,81,76,71,100,72,44,30.00,29.86,14,7,20,0.00
2012-9-5,101,87,75,79,74,68,99,68,45,29.97,29.84,13,7,20,0.00
2012-9-6,102,89,76,78,73,67,93,62,39,29.99,29.87,9,5,14,0.00
2012-9-7,103,88,76,78,73,70,91,63,40,29.95,29.80,25,7,35,0.00
2012-9-8,84,75,66,70,62,55,100,67,39,30.15,29.94,29,14,41,0.02
2012-9-9,91,76,63,62,57,52,87,54,31,30.20,30.01,12,5,17,0.00
2012-9-10,93,79,63,65,58,52,82,50,31,30.18,29.98,8,3,15,0.00
2012-9-11,92,78,64,66,61,58,89,59,37,30.16,29.96,16,7,26,0.00
2012-9-12,95,80,67,74,68,60,99,69,37,30.14,29.93,12,6,19,0.00
2012-9-13,88,78,72,80,75,72,100,90,67,30.18,30.06,20,8,34,0.00
2012-9-14,75,70,66,73,69,66,100,96,82,30.25,30.17,13,7,18,0.00
2012-9-15,81,70,64,71,66,64,100,88,68,30.25,30.11,12,6,15,0.00
2012-9-16,70,68,66,70,67,65,100,98,86,30.15,30.02,7,3,9,0.23
2012-9-17,82,73,67,80,70,67,100,92,67,30.03,29.79,10,3,15,0.01
2012-9-18,83,72,65,70,60,47,100,72,32,30.13,29.94,16,8,22,0.00
2012-9-19,87,72,58,63,55,49,96,58,35,30.19,30.00,12,6,17,0.00
2012-9-20,93,76,60,76,63,57,100,69,41,30.12,29.92,14,7,21,0.00
2012-9-21,94,78,62,71,65,61,100,71,35,30.06,29.89,12,7,19,0.00
2012-9-22,97,79,64,71,64,60,100,64,31,30.14,29.99,10,5,14,0.00
2012-9-23,96,80,65,70,66,63,99,66,39,30.22,30.04,8,4,14,0.00
2012-9-24,95,82,68,76,68,61,100,67,33,30.18,29.94,17,9,28,0.00
2012-9-25,95,82,73,76,70,64,100,70,39,30.07,29.86,29,14,41,0.00
2012-9-26,92,82,72,77,72,65,100,74,46,30.09,29.92,25,10,35,0.00
2012-9-27,92,80,72,77,72,67,100,80,53,30.15,29.98,15,6,23,0.00
2012-9-28,90,76,69,76,72,69,100,87,55,30.13,30.00,18,6,27,0.00
2012-9-29,73,70,67,73,70,67,100,100,97,30.05,29.87,20,9,33,1.63
2012-9-30,71,66,62,67,63,56,100,91,61,29.94,29.82,24,12,33,0.47
2012-10-1,84,71,60,64,60,55,100,73,40,29.92,29.77,18,10,26,0.00
2012-10-2,81,71,65,64,61,58,89,72,49,30.02,29.89,14,6,21,0.00
2012-10-3,84,71,59,64,61,57,100,74,45,30.07,29.92,18,7,26,0.00
2012-10-4,87,75,63,74,68,59,100,80,63,30.17,30.08,16,8,28,0.00
2012-10-5,85,74,57,77,69,54,100,87,68,30.15,30.02,24,11,32,0.00
2012-10-6,57,53,47,54,50,44,100,90,72,30.28,30.14,21,13,29,0.00
2012-10-7,53,50,47,45,43,39,89,78,61,30.34,30.23,18,8,28,0.00
2012-10-8,68,54,42,50,46,42,97,76,48,30.30,30.11,9,4,16,0.00
2012-10-9,77,63,50,70,60,49,100,91,76,30.12,29.90,22,10,34,0.00
2012-10-10,70,66,63,69,66,63,100,99,92,30.19,30.02,13,6,20,0.00
2012-10-11,85,73,65,78,72,65,100,96,79,30.20,30.08,20,8,32,0.10
2012-10-12,85,75,52,77,72,52,100,93,71,30.23,30.08,16,8,23,0.00
2012-10-13,84,76,70,76,73,70,100,93,73,30.13,29.89,30,15,45,0.00
2012-10-14,82,72,64,76,64,58,100,77,47,30.13,29.91,24,8,37,1.02
2012-10-15,84,69,57,62,57,53,100,68,37,30.16,29.95,9,4,12,0.00
2012-10-16,74,65,59,66,61,55,100,86,67,30.04,29.72,23,10,36,0.00
2012-10-17,87,73,65,74,64,53,100,78,43,29.85,29.57,24,15,38,0.00
2012-10-18,78,66,54,54,43,36,66,46,26,30.05,29.85,17,8,28,0.00
2012-10-19,79,64,52,48,43,37,78,51,26,30.08,29.88,20,8,26,0.00
2012-10-20,85,69,53,73,60,42,95,74,54,29.96,29.74,26,12,37,0.00
2012-10-21,88,79,74,78,75,73,100,89,67,29.96,29.82,25,15,39,0.00
2012-10-22,86,75,70,78,73,70,100,95,71,30.05,29.95,23,10,35,0.18
2012-10-23,85,75,69,76,72,69,100,92,73,30.04,29.87,20,11,30,0.00
2012-10-24,84,74,66,74,70,66,100,89,64,30.05,29.83,23,11,32,0.00
2012-10-25,80,68,53,74,66,48,100,95,80,30.12,29.88,24,11,34,0.07
2012-10-26,54,50,44,48,44,37,100,81,64,30.34,30.12,23,12,32,0.08
2012-10-27,60,47,38,42,37,34,95,70,43,30.36,30.17,14,8,23,0.00
2012-10-28,63,50,38,41,35,31,92,58,34,30.33,30.20,18,8,24,0.00
2012-10-29,69,54,41,42,36,31,71,53,32,30.34,30.17,9,4,11,0.00
2012-10-30,76,59,43,52,46,39,96,66,40,30.17,29.96,14,6,18,0.00
2012-10-31,86,66,52,58,54,50,100,69,37,30.07,29.93,10,6,15,0.00
2012-11-1,85,68,53,62,57,53,100,71,43,30.09,29.90,12,5,16,0.00
2012-11-2,87,71,58,66,60,56,98,72,39,30.06,29.88,18,9,27,0.00
2012-11-3,84,69,61,72,65,53,100,88,60,30.15,29.95,28,6,43,0.94
2012-11-4,65,57,53,57,49,47,82,76,69,30.19,30.12,10,6,14,0.00
2012-11-5,75,67,52,64,49,41,100,55,39,30.15,29.97,26,13,26,0.00
2012-11-6,72,57,47,56,48,44,100,72,45,30.21,30.01,15,6,15,0.00
2012-11-7,75,61,50,56,47,41,100,62,35,30.24,30.05,13,6,13,0.00
2012-11-8,80,66,53,65,56,44,91,73,58,30.18,29.94,36,17,36,0.00
2012-11-9,82,70,61,70,64,60,100,82,57,30.10,29.90,47,23,47,0.00
2012-11-10,80,71,61,67,65,61,100,83,61,30.06,29.84,46,25,46,0.00
2012-11-11,78,64,45,72,62,42,100,94,70,30.31,29.85,43,17,43,0.05
2012-11-12,58,45,35,42,31,27,92,60,33,30.52,30.30,26,11,26,0.00
2012-11-13,59,48,36,39,32,28,76,57,34,30.54,30.38,26,8,26,0.00
2012-11-14,64,50,41,40,37,34,83,61,37,30.47,30.32,12,5,12,0.00
2012-11-15,64,49,40,42,38,33,89,66,40,30.38,30.26,15,7,15,0.00
2012-11-16,64,51,38,44,39,36,99,67,42,30.45,30.34,16,7,16,0.00
2012-11-17,68,52,39,42,37,34,87,61,34,30.45,30.31,15,7,15,0.00
2012-11-18,70,56,45,48,42,39,83,61,40,30.35,30.23,24,10,24,0.00
2012-11-19,71,62,54,60,51,43,90,69,49,30.29,30.15,26,12,26,0.00
2012-11-20,80,61,52,64,57,52,100,87,58,30.25,30.17,13,6,13,0.00
2012-11-21,63,62,59,49,49,49,68,64,61,30.19,30.17,16,10,16,0.00
2012-11-22,77,64,53,59,54,48,97,73,41,30.18,30.07,37,12,37,0.00
2012-11-23,66,58,46,60,42,29,100,60,32,30.45,30.15,43,17,43,0.00
2012-11-24,61,48,35,33,30,26,71,51,33,30.46,30.16,16,7,16,0.00
2012-11-25,74,58,41,60,45,32,92,65,45,30.16,29.91,34,17,35,0.00
2012-11-26,76,62,48,66,56,40,100,83,43,30.28,29.93,32,16,33,0.00
2012-11-27,52,46,43,44,40,35,100,79,66,30.46,30.26,29,10,29,0.00
2012-11-28,65,50,37,47,42,37,100,77,47,30.47,30.31,23,9,23,0.00
2012-11-29,66,54,41,55,46,39,100,76,49,30.31,30.15,29,13,29,0.00
2012-11-30,70,62,54,66,61,54,100,97,84,30.21,30.08,30,14,30,0.00
2012-12-1,82,71,64,72,67,64,100,88,63,30.13,30.00,40,19,41,0.00
2012-12-2,82,72,67,71,68,64,100,87,62,30.18,30.05,36,18,36,0.00
2012-12-3,80,70,64,68,65,63,100,85,62,30.08,29.96,39,20,40,0.00
2012-12-4,72,64,54,64,52,34,100,68,38,30.29,30.04,26,14,26,0.00
2012-12-5,63,53,44,55,47,36,100,80,53,30.31,30.09,18,8,18,0.00
2012-12-6,70,57,48,59,55,48,100,93,65,30.09,29.87,28,12,28,0.00
2012-12-7,73,62,54,65,60,54,100,93,68,29.95,29.84,30,13,30,0.00
2012-12-8,69,60,53,66,58,53,100,92,74,29.98,29.84,23,8,23,0.01
2012-12-9,72,62,42,71,58,27,100,87,56,30.07,29.83,34,17,35,0.00
2012-12-10,45,37,30,29,25,20,93,63,48,30.21,30.07,37,16,37,0.00
2012-12-11,51,38,26,26,22,17,83,55,31,30.28,30.15,12,5,12,0.00
2012-12-12,57,42,30,32,27,22,79,56,34,30.37,30.24,20,9,20,0.00
2012-12-13,64,48,34,36,30,23,70,50,34,30.36,30.21,25,13,26,0.00
2012-12-14,61,55,48,60,47,32,100,76,51,30.24,29.92,32,16,33,0.03
2012-12-15,73,62,56,60,50,42,100,71,33,29.98,29.88,29,10,29,0.16
2012-12-16,72,59,52,53,48,42,91,70,37,29.91,29.76,17,7,18,0.00
2012-12-17,62,51,44,51,44,40,100,78,53,29.98,29.82,25,9,26,0.00
2012-12-18,78,58,40,53,44,38,94,64,29,29.92,29.82,23,11,23,0.00
2012-12-19,78,70,58,71,65,36,100,86,39,29.85,29.65,64,25,65,0.23
2012-12-20,53,46,40,31,23,18,71,42,28,30.44,30.23,45,20,45,0.23
2012-12-21,65,47,32,32,26,20,66,46,26,30.49,30.33,17,8,17,0.00
2012-12-22,66,52,35,52,38,24,85,61,48,30.35,30.08,41,14,42,0.00
2012-12-23,66,58,48,62,49,34,100,74,40,30.08,29.89,28,12,28,0.00
2012-12-24,55,44,34,39,34,30,89,69,53,30.09,29.85,20,9,20,0.00
2012-12-25,46,38,28,46,37,28,100,97,70,30.16,29.67,38,21,38,1.59
2012-12-26,31,26,17,28,25,2,100,96,86,30.32,30.16,36,12,36,0.01
2012-12-27,42,33,23,42,33,23,100,100,96,30.19,29.95,20,8,20,0.01
2012-12-28,41,37,31,41,36,30,100,98,89,30.26,29.93,30,15,30,0.05
2012-12-29,44,35,28,38,32,24,100,90,65,30.48,30.25,18,8,18,0.00
2012-12-30,48,39,29,40,31,26,100,77,47,30.50,30.27,23,10,23,0.00
2012-12-31,47,43,30,47,41,29,100,95,70,30.27,30.02,18,7,19,0.31
2013-1-1,44,41,36,44,41,36,100,100,99,30.32,30.09,23,11,23,0.00